Terminal Aerodrome Forecast
Issued by NWS

Home | Current Version | Previous Version | Text Only | Print | Product List | Glossary On
Versions: 1 2 3 4 5 6 7 8 9 10 11 12 13 14 15 16 17 18 19 20 21 22 23
000
FTUS43 KILX 221100
TAFCMI
TAF
KCMI 221140Z 2212/2312 12012KT 6SM BR VCSH BKN035
     FM221400 11013KT 5SM -RA BR SCT012 OVC030
     FM221500 12014KT 3SM -RA BR SCT007 OVC015
     FM221800 12015G19KT 1 1/2SM -RA BR OVC004
     FM230400 12014KT 2SM -RA BR OVC004=

USA.gov is the U.S. government's official web portal to all federal, state and local government web resources and services.